Iris Victoria — V7TS8 — position and weather

sailwx.info

Track history (hours):
 
Tides and Currents Weather Stations Pressure Air Temp Water Temp Dewpoint Dewpoint Depression Visibility Wind Speed Wind Dir Waves Ship Positions

Iris Victoria

Last reported at 2014-Oct-30 00:13 UTC. Time now 2014-Nov-01 00:39 UTC.
Position N 35°51' E 124°22'.

Length 228 m; draft 11.2 m.

Type: Ship. MMSI: 538003876.

Date/timePositionNaut miles runAvg speedWind from/ knotsBaromVisibWave heightAir tempDewpointWater temp
2014-Oct-30 00:13N 35°51' E 124°22'1014.4
2014-Oct-29 23:30N 36°01' E 124°20'3114.3
2014-Oct-29 21:22N 36°32' E 124°14'1214.7
2014-Oct-29 20:33N 36°43' E 124°11'1515.0
2014-Oct-29 19:33N 36°58' E 124°08'1615.4
2014-Oct-29 18:29N 37°14' E 124°04'1415.4
2014-Oct-29 17:33N 37°28' E 123°60'1514.7
2014-Oct-29 16:33N 37°39' E 123°47'1414.2
2014-Oct-29 15:33N 37°49' E 123°34'1413.6
2014-Oct-29 14:33N 37°58' E 123°21'1413.6
2014-Oct-29 13:33N 38°07' E 123°09'1413.8
2014-Oct-29 12:33N 38°17' E 122°56'4814.4
2014-Oct-29 09:14N 38°48' E 122°10'7 8.5
2014-Oct-29 08:27N 38°53' E 122°04'6 1.1
2014-Oct-29 02:33N 38°55' E 121°56'5 0.1
2014-Oct-27 02:30N 38°56' E 122°02'1 0.7
2014-Oct-27 00:22N 38°55' E 122°03'0 0.1
2014-Oct-26 23:33N 38°55' E 122°03'5 4.7
2014-Oct-26 22:26N 38°51' E 122°07'  
Track history (hours):
 
Tides and Currents Weather Stations Pressure Air Temp Water Temp Dewpoint Dewpoint Depression Visibility Wind Speed Wind Dir Waves Ship Positions

Iris Victoria

Last reported at 2014-Oct-30 00:13 UTC. Time now 2014-Nov-01 00:39 UTC.
Position N 35°51' E 124°22'.

Length 228 m; draft 11.2 m.

Type: Ship. MMSI: 538003876.

Date/timePositionNaut miles runAvg speedWind from/ knotsBaromVisibWave heightAir tempDewpointWater temp
2014-Oct-30 00:13N 35°51' E 124°22'1014.4
2014-Oct-29 23:30N 36°01' E 124°20'3114.3
2014-Oct-29 21:22N 36°32' E 124°14'1214.7
2014-Oct-29 20:33N 36°43' E 124°11'1515.0
2014-Oct-29 19:33N 36°58' E 124°08'1615.4
2014-Oct-29 18:29N 37°14' E 124°04'1415.4
2014-Oct-29 17:33N 37°28' E 123°60'1514.7
2014-Oct-29 16:33N 37°39' E 123°47'1414.2
2014-Oct-29 15:33N 37°49' E 123°34'1413.6
2014-Oct-29 14:33N 37°58' E 123°21'1413.6
2014-Oct-29 13:33N 38°07' E 123°09'1413.8
2014-Oct-29 12:33N 38°17' E 122°56'4814.4
2014-Oct-29 09:14N 38°48' E 122°10'7 8.5
2014-Oct-29 08:27N 38°53' E 122°04'6 1.1
2014-Oct-29 02:33N 38°55' E 121°56'5 0.1
2014-Oct-27 02:30N 38°56' E 122°02'1 0.7
2014-Oct-27 00:22N 38°55' E 122°03'0 0.1
2014-Oct-26 23:33N 38°55' E 122°03'5 4.7
2014-Oct-26 22:26N 38°51' E 122°07'  

Dump ship's entire track history